UAL949 EGLL-KSFO
Flight info
| Callsign | UAL949 |
|---|---|
| Flight time | N/A |
| Altitude | 34000 |
| Route | ULTIB1J ULTIB T420 TNT UL28 RODOL UM65 TENSO L603 BELOX DCT GOMUP/M086F340 DCT 60N020W 65N030W 68N040W/M086F360 69N050W 69N060W DCT BOPUT/N0503F360 DCT 68N070W 67N080W 65N089W 62N100W 58N110W/N0489F380 DCT YEZ DCT WELLF DCT ONSET DCT BRUKK DCT RBL/N0483F390 DCT MRRLO BDEGA4 |
| Aircraft | B78X/H-SDE1E2E3FGHIJ2J3J4J5M1RWXY/LB1D1 |
Departure
| Time | 2026-04-30 19:24 |
|---|---|
| Airport | London Heathrow Airport (EGLL) |
Arrival
| Time | N/A |
|---|---|
| Airport | San Francisco International Airport (KSFO) |
| Time | Latitude | Longitude | Altitude | Speed | Heading |
|---|---|---|---|---|---|
| 2026-04-30 18:47 | 51.47291 | -0.47018 | 92 ft | 0 kts | 270° |
| 2026-04-30 19:09 | 51.47291 | -0.47000 | 94 ft | 2 kts | 268° |
| 2026-04-30 19:09 | 51.47291 | -0.46973 | 91 ft | 2 kts | 269° |
| 2026-04-30 19:09 | 51.47291 | -0.46947 | 91 ft | 2 kts | 269° |
| 2026-04-30 19:10 | 51.47292 | -0.46894 | 94 ft | 2 kts | 266° |
| 2026-04-30 19:10 | 51.47313 | -0.46867 | 91 ft | 2 kts | 176° |
| 2026-04-30 19:11 | 51.47325 | -0.46868 | 92 ft | 1 kts | 178° |
| 2026-04-30 19:11 | 51.47326 | -0.46868 | 93 ft | 0 kts | 179° |
| 2026-04-30 19:16 | 51.47322 | -0.46869 | 92 ft | 2 kts | 180° |
| 2026-04-30 19:16 | 51.47294 | -0.46868 | 92 ft | 7 kts | 179° |
| 2026-04-30 19:16 | 51.47130 | -0.46869 | 95 ft | 14 kts | 181° |
| 2026-04-30 19:17 | 51.47015 | -0.46864 | 92 ft | 19 kts | 179° |
| 2026-04-30 19:17 | 51.46691 | -0.46867 | 96 ft | 16 kts | 195° |
| 2026-04-30 19:17 | 51.46655 | -0.47012 | 94 ft | 17 kts | 268° |
| 2026-04-30 19:18 | 51.46655 | -0.47329 | 95 ft | 25 kts | 270° |
| 2026-04-30 19:18 | 51.46653 | -0.47806 | 92 ft | 23 kts | 270° |
| 2026-04-30 19:18 | 51.46652 | -0.48054 | 92 ft | 23 kts | 270° |
| 2026-04-30 19:19 | 51.46652 | -0.48320 | 93 ft | 11 kts | 270° |
| 2026-04-30 19:19 | 51.46652 | -0.48361 | 93 ft | 0 kts | 270° |
| 2026-04-30 19:20 | 51.46652 | -0.48382 | 93 ft | 0 kts | 269° |
| 2026-04-30 19:20 | 51.46649 | -0.48429 | 94 ft | 5 kts | 256° |
| 2026-04-30 19:21 | 51.46624 | -0.48460 | 96 ft | 0 kts | 201° |
| 2026-04-30 19:22 | 51.46578 | -0.48465 | 95 ft | 8 kts | 179° |
| 2026-04-30 19:22 | 51.46479 | -0.48329 | 95 ft | 0 kts | 89° |
| 2026-04-30 19:23 | 51.46477 | -0.47792 | 95 ft | 77 kts | 89° |
| 2026-04-30 19:24 | 51.46483 | -0.44777 | 205 ft | 176 kts | 85° |
| 2026-04-30 19:24 | 51.46532 | -0.42837 | 1038 ft | 169 kts | 86° |
| 2026-04-30 19:24 | 51.47645 | -0.39451 | 2012 ft | 198 kts | 50° |
| 2026-04-30 19:25 | 51.49681 | -0.32991 | 3244 ft | 248 kts | 63° |
| 2026-04-30 19:26 | 51.52160 | -0.28870 | 4656 ft | 278 kts | 27° |
| 2026-04-30 19:26 | 51.56090 | -0.28294 | 5933 ft | 290 kts | 3° |
| 2026-04-30 19:26 | 51.58098 | -0.28119 | 6014 ft | 291 kts | 4° |
| 2026-04-30 19:27 | 51.62170 | -0.27988 | 6805 ft | 297 kts | 2° |
| 2026-04-30 19:27 | 51.66332 | -0.28383 | 7808 ft | 305 kts | 337° |
| 2026-04-30 19:28 | 51.68227 | -0.29952 | 8331 ft | 310 kts | 330° |
| 2026-04-30 19:28 | 51.71903 | -0.33590 | 9354 ft | 315 kts | 328° |
| 2026-04-30 19:29 | 51.75704 | -0.37237 | 10393 ft | 320 kts | 329° |
| 2026-04-30 19:29 | 51.76000 | -0.37521 | 10466 ft | 321 kts | 329° |
| 2026-04-30 19:30 | 51.80713 | -0.42090 | 11599 ft | 327 kts | 328° |
| 2026-04-30 19:30 | 51.84676 | -0.45930 | 12502 ft | 342 kts | 328° |
| 2026-04-30 19:31 | 51.88979 | -0.50113 | 13214 ft | 379 kts | 329° |
| 2026-04-30 19:31 | 51.91269 | -0.52343 | 13847 ft | 387 kts | 329° |
| 2026-04-30 19:31 | 51.95943 | -0.56901 | 15205 ft | 397 kts | 329° |
| 2026-04-30 19:32 | 51.98313 | -0.59218 | 15884 ft | 400 kts | 329° |
| 2026-04-30 19:32 | 52.00713 | -0.61566 | 16564 ft | 404 kts | 329° |
| 2026-04-30 19:32 | 52.03128 | -0.63932 | 17247 ft | 408 kts | 328° |
| 2026-04-30 19:32 | 52.05576 | -0.66334 | 17911 ft | 412 kts | 328° |
| 2026-04-30 19:33 | 52.08043 | -0.68757 | 18569 ft | 416 kts | 328° |
| 2026-04-30 19:33 | 52.10497 | -0.71170 | 19127 ft | 420 kts | 328° |
| 2026-04-30 19:33 | 52.13006 | -0.73641 | 19669 ft | 424 kts | 328° |
| 2026-04-30 19:33 | 52.15541 | -0.76142 | 20219 ft | 428 kts | 328° |
| 2026-04-30 19:34 | 52.18097 | -0.78665 | 20749 ft | 432 kts | 328° |
| 2026-04-30 19:34 | 52.20675 | -0.81214 | 21282 ft | 436 kts | 328° |
| 2026-04-30 19:34 | 52.25908 | -0.86400 | 22302 ft | 443 kts | 328° |
| 2026-04-30 19:35 | 52.28552 | -0.89025 | 22806 ft | 447 kts | 328° |
| 2026-04-30 19:35 | 52.31234 | -0.91693 | 23285 ft | 451 kts | 328° |
| 2026-04-30 19:35 | 52.33888 | -0.94336 | 23761 ft | 454 kts | 328° |
| 2026-04-30 19:35 | 52.36604 | -0.97044 | 24172 ft | 458 kts | 328° |
| 2026-04-30 19:36 | 52.39333 | -0.99770 | 24575 ft | 460 kts | 328° |